Time;durP1;ratioP1;P1;durP2;ratioP2;P2;SDS_P1;SDS_P2;PMS_P1;PMS_P2;Temp;Humidity;BMP_temperature;BMP_pressure;BME280_temperature;BME280_humidity;BME280_pressure;Samples;Min_cycle;Max_cycle;Signal;HPM_P1;HPM_P2
2021/12/21 00:01:21;;;;;;;11.13;6.87;;;-0.50;95.30;;;;;;5029228;28;20211;-72
2021/12/21 00:03:46;;;;;;;12.20;6.87;;;-0.50;95.30;;;;;;5028835;28;20326;-72
2021/12/21 00:06:12;;;;;;;14.53;5.93;;;-0.60;95.30;;;;;;5030466;28;20431;-71
2021/12/21 00:08:38;;;;;;;14.00;6.87;;;-0.60;95.30;;;;;;5028911;28;20185;-71
2021/12/21 00:11:04;;;;;;;17.00;7.17;;;-0.60;95.40;;;;;;5012131;28;20262;-73
2021/12/21 00:16:18;;;;;;;17.90;7.65;;;-0.60;95.50;;;;;;5029140;28;20173;-72
2021/12/21 00:19:03;;;;;;;18.45;7.32;;;-0.60;95.40;;;;;;5029941;28;20202;-71
2021/12/21 00:21:41;;;;;;;14.85;7.28;;;-0.70;95.40;;;;;;5029813;28;20594;-72
2021/12/21 00:24:19;;;;;;;16.85;6.68;;;-0.80;95.40;;;;;;5029861;28;20189;-72
2021/12/21 00:26:45;;;;;;;19.08;7.95;;;-0.70;95.50;;;;;;5029612;28;20283;-71
2021/12/21 00:29:11;;;;;;;22.50;9.17;;;-0.80;95.50;;;;;;5024694;28;20193;-71
2021/12/21 00:31:38;;;;;;;20.77;8.77;;;-0.80;95.60;;;;;;5029671;28;20216;-72
2021/12/21 00:34:07;;;;;;;17.73;9.10;;;-0.80;95.70;;;;;;5029402;28;20181;-71
2021/12/21 00:36:34;;;;;;;20.67;7.88;;;-0.80;95.80;;;;;;5029843;28;20192;-71
2021/12/21 00:39:04;;;;;;;18.85;8.13;;;-0.80;95.80;;;;;;5012829;28;20280;-71
2021/12/21 00:41:31;;;;;;;17.20;8.43;;;-0.80;95.90;;;;;;5030300;28;20249;-72
2021/12/21 00:43:57;;;;;;;16.77;7.65;;;-0.80;95.90;;;;;;5030312;28;20188;-71
2021/12/21 00:46:24;;;;;;;15.98;7.82;;;-0.80;95.90;;;;;;5019812;28;20212;-72
2021/12/21 00:48:53;;;;;;;17.27;8.68;;;-0.80;95.90;;;;;;5024008;28;20557;-72
2021/12/21 00:51:22;;;;;;;14.95;7.80;;;-0.80;96.00;;;;;;5041321;28;20229;-71
2021/12/21 00:53:48;;;;;;;14.68;7.60;;;-0.90;96.00;;;;;;5029759;28;20227;-72
2021/12/21 00:56:14;;;;;;;10.83;6.63;;;-0.90;96.00;;;;;;5030166;28;20189;-72
2021/12/21 00:58:40;;;;;;;13.67;6.70;;;-0.90;96.00;;;;;;5030310;28;21019;-73
2021/12/21 01:01:07;;;;;;;15.13;7.63;;;-0.90;96.00;;;;;;5030367;28;20477;-71
2021/12/21 01:03:41;;;;;;;18.05;8.75;;;-0.90;96.00;;;;;;5029833;28;20448;-72
2021/12/21 01:06:18;;;;;;;18.70;7.35;;;-0.90;96.00;;;;;;5030112;28;20262;-71
2021/12/21 01:08:59;;;;;;;19.60;7.80;;;-0.90;96.00;;;;;;5030284;28;20197;-71
2021/12/21 01:11:49;;;;;;;16.10;6.53;;;-0.90;96.00;;;;;;5026966;28;20713;-73
2021/12/21 01:17:11;;;;;;;14.45;8.43;;;-1.00;96.00;;;;;;5023262;28;20192;-71
2021/12/21 01:19:47;;;;;;;18.02;7.57;;;-0.90;96.10;;;;;;5028504;28;20181;-73
2021/12/21 01:33:29;;;;;;;11.10;7.00;;;-1.10;96.10;;;;;;5029684;28;20208;-73
2021/12/21 01:35:20;;;;;;;24.33;7.85;;;-1.10;96.20;;;;;;5019521;28;20196;-70
2021/12/21 01:51:02;;;;;;;18.00;8.18;;;-1.10;96.00;;;;;;5027627;28;20271;-71
2021/12/21 01:53:28;;;;;;;13.13;7.45;;;-1.10;96.10;;;;;;5032980;28;20193;-71
2021/12/21 01:55:53;;;;;;;21.30;7.23;;;-1.20;96.00;;;;;;5027469;28;20190;-71
2021/12/21 01:58:19;;;;;;;20.10;7.87;;;-1.20;96.00;;;;;;5033423;28;20451;-72
2021/12/21 02:00:45;;;;;;;16.03;7.80;;;-1.10;96.00;;;;;;5033408;28;20207;-72
2021/12/21 02:03:11;;;;;;;18.33;9.05;;;-1.20;95.90;;;;;;5032802;28;20205;-72
2021/12/21 02:05:38;;;;;;;22.63;8.47;;;-1.20;96.00;;;;;;5032933;28;20246;-72
2021/12/21 02:08:05;;;;;;;15.93;8.05;;;-1.30;96.00;;;;;;5032979;28;20189;-72
2021/12/21 02:10:31;;;;;;;13.75;7.38;;;-1.30;96.10;;;;;;5030173;28;20243;-71
2021/12/21 02:12:56;;;;;;;14.63;7.00;;;-1.30;96.10;;;;;;5030180;28;20288;-72
2021/12/21 02:15:25;;;;;;;16.10;6.67;;;-1.30;96.20;;;;;;5033162;28;20447;-71
2021/12/21 02:20:43;;;;;;;12.70;6.78;;;-1.40;96.30;;;;;;5033532;28;20272;-72
2021/12/21 02:23:14;;;;;;;14.25;7.00;;;-1.40;96.30;;;;;;5027036;28;20189;-72
2021/12/21 02:30:55;;;;;;;18.88;7.90;;;-1.40;96.20;;;;;;5024546;28;20282;-72
2021/12/21 02:33:23;;;;;;;17.30;7.60;;;-1.40;96.20;;;;;;5024526;28;20653;-71
2021/12/21 02:35:49;;;;;;;18.23;8.50;;;-1.40;96.30;;;;;;5013978;28;20534;-71
2021/12/21 02:38:15;;;;;;;13.90;7.18;;;-1.40;96.30;;;;;;5032742;28;20226;-71
2021/12/21 02:40:41;;;;;;;14.30;7.37;;;-1.40;96.40;;;;;;5033024;28;20588;-72
2021/12/21 02:43:10;;;;;;;15.10;7.13;;;-1.40;96.40;;;;;;5032394;28;20477;-71
2021/12/21 02:45:38;;;;;;;11.85;5.70;;;-1.40;96.50;;;;;;5013957;28;20471;-70
2021/12/21 02:48:05;;;;;;;14.88;7.03;;;-1.40;96.40;;;;;;5032419;28;20682;-71
2021/12/21 02:50:31;;;;;;;14.82;7.53;;;-1.40;96.30;;;;;;5032154;28;20219;-71
2021/12/21 02:52:59;;;;;;;13.30;7.25;;;-1.40;96.30;;;;;;5032027;28;20196;-71
2021/12/21 02:55:26;;;;;;;16.75;7.25;;;-1.50;96.20;;;;;;5031847;28;20713;-72
2021/12/21 02:57:52;;;;;;;14.45;7.68;;;-1.50;96.30;;;;;;5032122;28;20276;-72
2021/12/21 03:00:18;;;;;;;14.73;6.00;;;-1.50;96.30;;;;;;5014419;28;20390;-73
2021/12/21 03:02:44;;;;;;;12.65;6.30;;;-1.50;96.30;;;;;;5032433;28;20193;-71
2021/12/21 03:05:11;;;;;;;12.60;7.10;;;-1.50;96.30;;;;;;5014898;28;20189;-72
2021/12/21 03:10:10;;;;;;;14.52;6.63;;;-1.50;96.10;;;;;;5033374;28;20202;-71
2021/12/21 03:15:35;;;;;;;15.45;7.20;;;-1.50;96.10;;;;;;5033106;28;20652;-71
2021/12/21 03:18:01;;;;;;;12.48;6.97;;;-1.60;96.10;;;;;;5024474;28;20188;-71
2021/12/21 03:20:27;;;;;;;17.83;6.70;;;-1.60;96.20;;;;;;5031217;28;20270;-71
2021/12/21 03:22:53;;;;;;;15.30;8.00;;;-1.60;96.30;;;;;;5019096;28;20918;-71
2021/12/21 03:25:19;;;;;;;14.40;6.87;;;-1.60;96.40;;;;;;5029831;28;20192;-71
2021/12/21 03:27:45;;;;;;;10.15;5.75;;;-1.60;96.40;;;;;;5024731;28;20635;-71
2021/12/21 03:30:13;;;;;;;14.50;6.30;;;-1.60;96.40;;;;;;5018489;28;20245;-72
2021/12/21 03:32:38;;;;;;;12.18;7.15;;;-1.60;96.40;;;;;;5025081;28;20316;-72
2021/12/21 03:35:05;;;;;;;14.60;8.00;;;-1.70;96.40;;;;;;5031352;28;20201;-71
2021/12/21 03:37:33;;;;;;;14.65;6.97;;;-1.70;96.40;;;;;;5020562;28;20209;-71
2021/12/21 03:40:01;;;;;;;12.27;6.00;;;-1.70;96.50;;;;;;5030194;28;20209;-72
2021/12/21 03:42:27;;;;;;;13.75;8.02;;;-1.70;96.50;;;;;;5030359;28;20301;-71
2021/12/21 03:44:53;;;;;;;15.30;7.50;;;-1.60;96.40;;;;;;5023815;28;20227;-72
2021/12/21 03:47:22;;;;;;;12.17;5.80;;;-1.60;96.30;;;;;;5026523;28;20688;-70
2021/12/21 03:49:54;;;;;;;11.77;5.60;;;-1.70;96.30;;;;;;5031072;28;20554;-72
2021/12/21 03:52:22;;;;;;;12.27;6.18;;;-1.70;96.20;;;;;;5031699;28;20251;-71
2021/12/21 03:54:51;;;;;;;14.48;6.15;;;-1.70;96.30;;;;;;5011962;28;20185;-72
2021/12/21 03:57:17;;;;;;;17.35;7.30;;;-1.70;96.30;;;;;;5034026;28;20713;-71
2021/12/21 03:59:45;;;;;;;14.80;5.60;;;-1.70;96.20;;;;;;5021498;28;20190;-71
2021/12/21 04:02:12;;;;;;;9.85;5.32;;;-1.80;96.20;;;;;;5030619;28;20236;-71
2021/12/21 04:04:43;;;;;;;12.05;5.80;;;-1.80;96.20;;;;;;5031178;28;20189;-71
2021/12/21 04:07:09;;;;;;;12.10;6.22;;;-1.80;96.30;;;;;;5026014;28;20193;-70
2021/12/21 04:09:35;;;;;;;13.05;6.65;;;-1.80;96.30;;;;;;5031132;28;20185;-71
2021/12/21 04:12:01;;;;;;;13.17;5.87;;;-1.80;96.20;;;;;;5030869;28;20217;-71
2021/12/21 04:14:29;;;;;;;14.93;7.27;;;-1.80;96.30;;;;;;5032062;28;20949;-72
2021/12/21 04:16:55;;;;;;;16.73;6.80;;;-1.90;96.30;;;;;;5005538;28;20856;-72
2021/12/21 04:19:21;;;;;;;16.20;7.90;;;-1.80;96.30;;;;;;5030807;28;20191;-71
2021/12/21 04:21:48;;;;;;;12.38;7.50;;;-1.90;96.30;;;;;;5030590;28;20456;-71
2021/12/21 04:24:13;;;;;;;13.95;7.40;;;-1.90;96.30;;;;;;5023576;28;20285;-72
2021/12/21 04:26:39;;;;;;;15.33;6.73;;;-1.80;96.30;;;;;;5028493;28;20272;-70
2021/12/21 04:29:05;;;;;;;11.85;5.75;;;-1.80;96.20;;;;;;5027826;28;20440;-70
2021/12/21 04:31:31;;;;;;;11.43;6.73;;;-1.90;96.10;;;;;;5024661;28;20221;-71
2021/12/21 04:33:58;;;;;;;16.70;7.43;;;-1.90;96.20;;;;;;5025849;28;20177;-71
2021/12/21 04:36:24;;;;;;;12.15;6.55;;;-1.90;96.20;;;;;;5026585;28;20739;-70
2021/12/21 04:38:51;;;;;;;13.40;6.70;;;-1.90;96.30;;;;;;5032207;28;20220;-71
2021/12/21 04:41:27;;;;;;;11.88;5.45;;;-1.90;96.30;;;;;;5031754;28;20287;-69
2021/12/21 04:43:55;;;;;;;14.77;6.20;;;-1.90;96.30;;;;;;5030210;28;20177;-70
2021/12/21 04:46:23;;;;;;;18.50;5.45;;;-1.90;96.20;;;;;;5029106;28;20185;-70
2021/12/21 04:48:49;;;;;;;9.10;5.50;;;-1.80;96.30;;;;;;5028347;28;20243;-69
2021/12/21 04:51:15;;;;;;;12.52;6.00;;;-1.80;96.20;;;;;;5030106;28;20220;-69
2021/12/21 04:53:41;;;;;;;14.23;6.73;;;-1.80;96.20;;;;;;5029359;28;20193;-70
2021/12/21 04:56:07;;;;;;;13.27;5.90;;;-1.80;96.10;;;;;;5028739;28;20181;-70
2021/12/21 04:58:33;;;;;;;11.75;5.90;;;-1.80;96.00;;;;;;5021710;28;20451;-70
2021/12/21 05:00:59;;;;;;;8.30;4.87;;;-1.80;96.00;;;;;;5029277;28;20201;-69
2021/12/21 05:03:24;;;;;;;8.97;5.07;;;-1.80;95.90;;;;;;5029281;28;20452;-70
2021/12/21 05:05:51;;;;;;;10.00;5.50;;;-1.80;95.80;;;;;;5028712;28;20519;-70
2021/12/21 05:08:24;;;;;;;10.40;6.15;;;-1.90;95.70;;;;;;5012073;28;20189;-71
2021/12/21 05:10:53;;;;;;;9.68;5.38;;;-2.00;95.80;;;;;;5029275;28;20233;-69
2021/12/21 05:13:26;;;;;;;13.65;6.75;;;-2.10;95.80;;;;;;5016437;28;20180;-70
2021/12/21 05:15:52;;;;;;;10.43;5.78;;;-2.10;95.90;;;;;;5029013;28;20189;-70
2021/12/21 05:18:18;;;;;;;9.50;5.97;;;-2.00;96.00;;;;;;5030373;28;20277;-71
2021/12/21 05:20:45;;;;;;;18.17;7.18;;;-2.00;96.10;;;;;;5030575;28;20212;-71
2021/12/21 05:23:11;;;;;;;14.32;6.22;;;-2.00;96.20;;;;;;5030147;28;20193;-69
2021/12/21 05:25:38;;;;;;;11.60;6.50;;;-2.00;96.10;;;;;;5029023;28;20227;-71
2021/12/21 05:28:05;;;;;;;11.52;5.40;;;-2.00;96.00;;;;;;5029827;28;20186;-70
2021/12/21 05:30:32;;;;;;;15.02;6.75;;;-2.00;96.00;;;;;;5029762;28;20266;-70
2021/12/21 05:32:58;;;;;;;17.30;6.55;;;-2.10;95.90;;;;;;5029675;28;20177;-70
2021/12/21 05:35:25;;;;;;;14.53;6.57;;;-2.10;96.00;;;;;;5029390;28;20181;-70
2021/12/21 05:37:55;;;;;;;12.95;7.20;;;-2.10;96.20;;;;;;5029720;28;20495;-71
2021/12/21 05:40:20;;;;;;;14.23;6.85;;;-2.10;96.30;;;;;;5029758;28;20217;-71
2021/12/21 05:42:48;;;;;;;18.87;6.60;;;-2.00;96.30;;;;;;5029475;28;20232;-70
2021/12/21 05:45:17;;;;;;;13.23;6.20;;;-2.10;96.30;;;;;;5028679;28;20189;-70
2021/12/21 05:47:44;;;;;;;20.83;7.03;;;-2.10;96.30;;;;;;5030136;28;20200;-71
2021/12/21 05:50:15;;;;;;;15.90;6.95;;;-2.10;96.30;;;;;;5030553;28;20595;-70
2021/12/21 05:52:41;;;;;;;11.82;6.55;;;-2.10;96.30;;;;;;5029629;28;20207;-71
2021/12/21 05:55:07;;;;;;;13.77;6.57;;;-2.10;96.20;;;;;;5029962;28;20177;-71
2021/12/21 05:57:33;;;;;;;15.23;6.32;;;-2.10;96.20;;;;;;5025635;28;20246;-72
2021/12/21 05:59:59;;;;;;;15.67;6.60;;;-2.10;96.20;;;;;;5030211;28;20319;-71
2021/12/21 06:02:25;;;;;;;14.07;6.60;;;-2.10;96.00;;;;;;5028893;28;20435;-71
2021/12/21 06:04:51;;;;;;;13.07;5.60;;;-2.10;96.00;;;;;;5030367;28;20193;-71
2021/12/21 06:07:17;;;;;;;15.30;6.60;;;-2.10;96.00;;;;;;5014925;28;20185;-72
2021/12/21 06:09:45;;;;;;;20.37;7.67;;;-2.10;96.00;;;;;;5033680;28;20192;-71
2021/12/21 06:12:20;;;;;;;17.40;7.50;;;-2.20;96.00;;;;;;5032475;28;20209;-70
2021/12/21 06:28:04;;;;;;;12.38;7.15;;;-2.30;96.30;;;;;;5032457;28;20283;-71
2021/12/21 06:30:54;;;;;;;16.42;7.68;;;-2.30;96.40;;;;;;5029111;28;20239;-71
2021/12/21 06:33:21;;;;;;;21.13;7.70;;;-2.30;96.40;;;;;;5014925;28;20185;-71
2021/12/21 06:35:47;;;;;;;16.95;7.95;;;-2.30;96.30;;;;;;5030928;28;20650;-71
2021/12/21 06:38:13;;;;;;;13.33;8.30;;;-2.30;96.30;;;;;;5032428;28;20284;-71
2021/12/21 06:40:39;;;;;;;17.27;7.97;;;-2.30;96.20;;;;;;5013892;28;20564;-71
2021/12/21 06:43:05;;;;;;;17.92;7.70;;;-2.30;96.20;;;;;;5031387;28;20435;-72
2021/12/21 06:53:28;;;;;;;15.85;7.70;;;-2.30;96.30;;;;;;5033979;28;20259;-70
2021/12/21 06:55:53;;;;;;;21.20;8.05;;;-2.30;96.20;;;;;;5037291;28;20178;-71
2021/12/21 06:58:19;;;;;;;14.40;6.90;;;-2.30;96.10;;;;;;5033950;28;20184;-72
2021/12/21 07:00:46;;;;;;;17.20;7.37;;;-2.30;96.10;;;;;;5018007;28;20284;-69
2021/12/21 07:03:13;;;;;;;11.00;7.50;;;-2.30;96.00;;;;;;5031964;28;20201;-72
2021/12/21 07:05:42;;;;;;;13.20;6.90;;;-2.30;96.00;;;;;;5032439;28;20188;-71
2021/12/21 07:08:12;;;;;;;19.13;7.68;;;-2.30;96.00;;;;;;5032394;28;20193;-71
2021/12/21 07:10:39;;;;;;;16.33;7.40;;;-2.30;96.10;;;;;;5025285;28;20239;-72
2021/12/21 07:18:35;;;;;;;14.98;7.00;;;-2.30;96.10;;;;;;5028697;28;20705;-70
2021/12/21 07:21:02;;;;;;;17.70;7.77;;;-2.30;96.10;;;;;;5023273;28;20213;-70
2021/12/21 07:23:30;;;;;;;14.82;8.07;;;-2.30;96.00;;;;;;5031807;28;20565;-71
2021/12/21 07:25:56;;;;;;;22.38;9.55;;;-2.30;96.00;;;;;;5021784;28;20299;-70
2021/12/21 07:28:21;;;;;;;21.70;8.90;;;-2.30;96.00;;;;;;5025822;28;20200;-71
2021/12/21 07:30:47;;;;;;;22.43;8.30;;;-2.30;96.00;;;;;;5030819;28;20977;-70
2021/12/21 07:33:16;;;;;;;19.97;8.40;;;-2.40;96.10;;;;;;5032092;28;20426;-72
2021/12/21 07:35:43;;;;;;;12.80;7.32;;;-2.30;96.10;;;;;;5029982;28;20470;-71
2021/12/21 07:38:10;;;;;;;23.35;9.30;;;-2.30;96.00;;;;;;5031440;28;20185;-71
2021/12/21 07:40:37;;;;;;;17.77;7.72;;;-2.30;96.00;;;;;;5014134;28;20216;-70
2021/12/21 07:43:03;;;;;;;24.30;8.88;;;-2.40;95.90;;;;;;5031588;28;20213;-71
2021/12/21 07:45:29;;;;;;;12.65;7.35;;;-2.30;95.90;;;;;;5027585;28;20181;-72
2021/12/21 07:47:55;;;;;;;17.17;8.27;;;-2.20;95.90;;;;;;5031262;28;20181;-72
2021/12/21 07:50:21;;;;;;;10.98;8.23;;;-2.20;95.90;;;;;;5009364;28;20551;-71
2021/12/21 07:52:47;;;;;;;13.83;8.40;;;-2.20;95.80;;;;;;5029087;28;20185;-71
2021/12/21 07:55:13;;;;;;;18.42;8.50;;;-2.10;95.80;;;;;;5029251;28;20178;-71
2021/12/21 07:57:39;;;;;;;14.57;8.07;;;-2.10;95.80;;;;;;5022574;28;20565;-71
2021/12/21 08:00:09;;;;;;;16.13;9.02;;;-2.10;95.70;;;;;;5024355;28;20327;-72
2021/12/21 08:02:38;;;;;;;31.75;10.25;;;-2.00;95.70;;;;;;5026623;28;20217;-70
2021/12/21 08:05:06;;;;;;;19.30;8.88;;;-2.00;95.60;;;;;;5027852;28;20623;-71
2021/12/21 08:07:36;;;;;;;19.95;9.82;;;-2.10;95.50;;;;;;5013559;28;20349;-70
2021/12/21 08:10:17;;;;;;;20.02;9.32;;;-2.00;95.60;;;;;;5026204;28;20229;-71
2021/12/21 08:12:44;;;;;;;19.83;8.60;;;-2.00;95.50;;;;;;5030268;28;20308;-72
2021/12/21 08:15:09;;;;;;;14.65;8.32;;;-2.00;95.50;;;;;;5029710;28;20235;-71
2021/12/21 08:17:35;;;;;;;21.27;9.10;;;-1.90;95.50;;;;;;5026783;28;21022;-71
2021/12/21 08:20:01;;;;;;;19.97;10.07;;;-1.90;95.40;;;;;;5023436;28;20449;-72
2021/12/21 08:22:27;;;;;;;14.83;7.60;;;-1.80;95.40;;;;;;5029539;28;20303;-70
2021/12/21 08:24:52;;;;;;;14.20;7.73;;;-1.80;95.20;;;;;;5029255;28;20196;-72
2021/12/21 08:27:18;;;;;;;20.80;8.40;;;-1.80;95.10;;;;;;5030006;28;20267;-72
2021/12/21 08:29:44;;;;;;;17.70;7.90;;;-1.70;95.00;;;;;;5030010;28;20767;-70
2021/12/21 08:32:10;;;;;;;29.33;8.90;;;-1.70;95.00;;;;;;5029323;28;20575;-71
2021/12/21 08:34:36;;;;;;;18.63;8.20;;;-1.70;94.90;;;;;;5029541;28;20424;-71
2021/12/21 08:37:02;;;;;;;12.65;7.25;;;-1.60;94.80;;;;;;5027515;28;20456;-71
2021/12/21 08:39:36;;;;;;;18.00;8.25;;;-1.60;94.70;;;;;;5024083;28;20181;-71
2021/12/21 08:42:02;;;;;;;19.35;7.82;;;-1.60;94.60;;;;;;5029144;28;20191;-70
2021/12/21 08:44:29;;;;;;;9.70;6.77;;;-1.60;94.40;;;;;;5011744;28;20272;-72
2021/12/21 08:46:57;;;;;;;16.95;8.48;;;-1.60;94.40;;;;;;5027533;28;20420;-71
2021/12/21 08:49:23;;;;;;;12.15;7.50;;;-1.60;94.30;;;;;;5025543;28;20180;-72
2021/12/21 08:51:49;;;;;;;12.23;7.87;;;-1.60;94.40;;;;;;5027607;28;20239;-72
2021/12/21 08:54:15;;;;;;;14.83;7.60;;;-1.50;94.40;;;;;;5031525;28;20424;-70
2021/12/21 08:56:41;;;;;;;13.70;7.47;;;-1.50;94.40;;;;;;5030372;28;20780;-72
2021/12/21 08:59:07;;;;;;;17.77;8.43;;;-1.50;94.40;;;;;;5032895;28;20252;-70
2021/12/21 09:01:33;;;;;;;16.25;7.88;;;-1.40;94.40;;;;;;5029709;28;20448;-70
2021/12/21 09:03:59;;;;;;;17.47;8.20;;;-1.40;94.40;;;;;;5027390;28;20662;-72
2021/12/21 09:06:25;;;;;;;20.60;9.30;;;-1.40;94.40;;;;;;5030944;28;20854;-71
2021/12/21 09:08:50;;;;;;;15.77;8.50;;;-1.30;94.40;;;;;;5026081;28;20189;-72
2021/12/21 09:11:16;;;;;;;13.60;8.67;;;-1.20;94.40;;;;;;5021839;28;20260;-72
2021/12/21 09:13:42;;;;;;;14.87;8.17;;;-1.20;94.30;;;;;;5022967;28;20242;-72
2021/12/21 09:16:08;;;;;;;17.17;9.07;;;-1.10;94.30;;;;;;5023262;28;20189;-71
2021/12/21 09:18:33;;;;;;;14.87;8.27;;;-1.00;94.10;;;;;;5030501;28;20256;-71
2021/12/21 09:20:59;;;;;;;27.67;10.63;;;-1.00;93.90;;;;;;5030371;28;20200;-71
2021/12/21 09:23:27;;;;;;;17.53;9.70;;;-1.00;93.80;;;;;;5033096;28;20193;-71
2021/12/21 09:25:53;;;;;;;15.63;9.60;;;-1.00;93.70;;;;;;5023954;28;20186;-70
2021/12/21 09:28:19;;;;;;;21.63;10.60;;;-0.90;93.70;;;;;;5022900;28;20192;-71
2021/12/21 09:30:45;;;;;;;20.03;9.60;;;-0.90;93.60;;;;;;5031904;28;20240;-72
2021/12/21 09:33:11;;;;;;;25.48;10.13;;;-0.80;93.50;;;;;;5037891;28;20245;-72
2021/12/21 09:35:37;;;;;;;18.97;9.60;;;-0.80;93.50;;;;;;5030779;28;20651;-71
2021/12/21 09:38:03;;;;;;;22.73;10.10;;;-0.80;93.30;;;;;;5039093;28;20459;-71
2021/12/21 09:40:29;;;;;;;18.77;10.48;;;-0.70;93.20;;;;;;5036977;28;20212;-72
2021/12/21 09:42:57;;;;;;;18.85;10.88;;;-0.70;93.10;;;;;;5040424;28;20181;-71
2021/12/21 09:45:22;;;;;;;20.50;9.88;;;-0.70;93.10;;;;;;5035371;28;20229;-71
2021/12/21 09:47:49;;;;;;;20.73;10.70;;;-0.60;93.10;;;;;;5012085;28;20216;-71
2021/12/21 09:50:17;;;;;;;21.38;11.30;;;-0.40;92.80;;;;;;5036845;28;20228;-71
2021/12/21 09:52:43;;;;;;;19.25;10.57;;;-0.40;92.20;;;;;;5035473;28;20195;-70
2021/12/21 09:55:12;;;;;;;19.15;10.00;;;-0.40;92.00;;;;;;5034047;28;20177;-72
2021/12/21 09:57:39;;;;;;;20.10;10.77;;;-0.30;92.00;;;;;;5036301;28;20181;-71
2021/12/21 10:00:11;;;;;;;22.65;12.05;;;-0.20;91.80;;;;;;5030273;28;20201;-71
2021/12/21 10:02:37;;;;;;;20.92;11.52;;;-0.10;91.60;;;;;;5033110;28;20231;-71
2021/12/21 10:05:06;;;;;;;20.50;10.63;;;0.00;91.50;;;;;;5032955;28;20220;-71
2021/12/21 10:07:33;;;;;;;24.80;11.90;;;0.10;91.40;;;;;;5033386;28;20412;-71
2021/12/21 10:10:16;;;;;;;27.70;12.10;;;0.20;91.10;;;;;;5029319;28;20193;-71
2021/12/21 10:12:45;;;;;;;28.05;12.52;;;0.20;90.90;;;;;;5015554;28;20276;-70
2021/12/21 10:15:18;;;;;;;20.63;10.80;;;0.30;90.70;;;;;;5032529;28;20189;-72
2021/12/21 10:17:59;;;;;;;28.10;12.98;;;0.20;90.30;;;;;;5033770;28;20260;-72
2021/12/21 10:20:30;;;;;;;31.10;12.57;;;0.20;90.20;;;;;;5032888;28;20197;-71
2021/12/21 10:22:56;;;;;;;32.03;12.68;;;0.30;90.30;;;;;;5028892;28;20652;-71
2021/12/21 10:25:24;;;;;;;21.20;11.90;;;0.20;90.10;;;;;;5014628;28;20205;-71
2021/12/21 10:27:50;;;;;;;22.00;11.18;;;0.20;90.00;;;;;;5033136;28;20575;-72
2021/12/21 10:30:16;;;;;;;21.13;11.03;;;0.30;90.00;;;;;;5032534;28;20276;-71
2021/12/21 10:32:53;;;;;;;25.73;11.97;;;0.30;89.70;;;;;;5032734;28;20474;-71
2021/12/21 10:35:28;;;;;;;20.67;11.73;;;0.30;89.60;;;;;;5032002;28;20506;-71
2021/12/21 10:37:54;;;;;;;16.05;10.18;;;0.30;89.60;;;;;;5024673;28;20200;-71
2021/12/21 10:40:25;;;;;;;20.00;12.13;;;0.30;89.90;;;;;;5028537;28;20560;-71
2021/12/21 10:42:56;;;;;;;20.02;10.45;;;0.40;90.00;;;;;;5032513;28;20733;-71
2021/12/21 10:45:32;;;;;;;19.80;10.68;;;0.50;89.20;;;;;;5027878;28;20192;-72
2021/12/21 10:48:00;;;;;;;19.35;10.70;;;0.60;88.90;;;;;;5032326;28;20181;-71
2021/12/21 10:50:28;;;;;;;20.80;10.50;;;0.80;89.00;;;;;;5032560;28;20205;-71
2021/12/21 10:52:57;;;;;;;24.45;9.15;;;1.10;88.30;;;;;;5010256;28;20177;-71
2021/12/21 10:55:26;;;;;;;16.83;10.35;;;1.30;87.10;;;;;;5032360;28;20608;-72
2021/12/21 10:58:01;;;;;;;21.65;10.25;;;1.50;86.30;;;;;;5033044;28;20205;-71
2021/12/21 11:00:26;;;;;;;20.00;10.23;;;1.80;84.70;;;;;;5014946;28;20208;-70
2021/12/21 11:02:56;;;;;;;16.27;9.70;;;2.00;84.00;;;;;;5031656;28;20196;-71
2021/12/21 11:05:22;;;;;;;12.27;8.27;;;2.10;83.40;;;;;;5013895;28;20246;-72
2021/12/21 11:07:53;;;;;;;22.17;9.10;;;2.20;82.40;;;;;;5032463;28;20189;-72
2021/12/21 11:10:25;;;;;;;14.13;8.30;;;2.20;81.50;;;;;;5032600;28;20464;-71
2021/12/21 11:13:00;;;;;;;15.55;9.00;;;2.10;81.40;;;;;;5032626;28;20548;-72
2021/12/21 11:15:32;;;;;;;17.95;8.48;;;2.00;80.90;;;;;;5031283;28;20208;-70
2021/12/21 11:18:08;;;;;;;15.27;8.50;;;1.90;81.50;;;;;;5032207;28;20307;-72
2021/12/21 11:20:37;;;;;;;19.33;8.50;;;1.90;81.70;;;;;;5031989;28;20212;-71
2021/12/21 11:23:05;;;;;;;14.35;7.22;;;1.90;81.70;;;;;;5032495;28;20189;-72
2021/12/21 11:25:32;;;;;;;13.73;7.45;;;1.90;81.20;;;;;;5031012;28;20265;-71
2021/12/21 11:28:01;;;;;;;16.92;8.05;;;1.80;80.60;;;;;;5031378;28;20189;-73
2021/12/21 11:30:27;;;;;;;13.48;8.05;;;1.70;81.20;;;;;;5031912;28;20204;-73
2021/12/21 11:32:54;;;;;;;16.25;8.20;;;1.70;81.70;;;;;;5023781;28;20644;-72
2021/12/21 11:37:56;;;;;;;16.88;8.30;;;1.70;81.80;;;;;;5032065;28;20249;-72
2021/12/21 11:40:25;;;;;;;16.15;8.98;;;1.70;81.80;;;;;;5010680;28;20209;-72
2021/12/21 11:42:51;;;;;;;12.68;7.60;;;1.70;81.80;;;;;;5032331;28;20192;-71
2021/12/21 11:45:28;;;;;;;14.07;7.43;;;1.70;82.10;;;;;;5032819;28;20185;-71
2021/12/21 11:48:15;;;;;;;14.88;8.65;;;1.70;81.70;;;;;;5035517;28;20184;-72
2021/12/21 11:50:45;;;;;;;15.60;7.65;;;1.70;81.90;;;;;;5033445;28;20212;-72
2021/12/21 11:53:13;;;;;;;10.93;7.03;;;1.70;81.90;;;;;;5032934;28;20262;-73
2021/12/21 11:55:42;;;;;;;13.70;8.55;;;1.80;81.70;;;;;;5030031;28;20188;-70
2021/12/21 11:58:17;;;;;;;13.18;8.00;;;1.80;81.90;;;;;;5031543;28;20188;-71
2021/12/21 12:00:50;;;;;;;13.88;8.05;;;1.80;81.90;;;;;;5031471;28;20654;-71
2021/12/21 12:03:20;;;;;;;19.23;7.13;;;1.80;82.10;;;;;;5031457;28;20753;-70
2021/12/21 12:06:13;;;;;;;9.75;7.05;;;1.90;81.50;;;;;;5030240;28;20200;-72
2021/12/21 12:08:44;;;;;;;10.70;6.95;;;2.00;81.40;;;;;;5024504;28;20221;-71
2021/12/21 12:11:20;;;;;;;12.68;7.18;;;2.00;81.70;;;;;;5026768;28;20205;-71
2021/12/21 12:13:46;;;;;;;10.52;6.65;;;2.00;80.60;;;;;;5028565;28;20558;-72
2021/12/21 12:16:15;;;;;;;17.60;7.30;;;2.00;80.00;;;;;;5025382;28;20178;-72
2021/12/21 12:18:42;;;;;;;8.98;6.15;;;2.10;80.50;;;;;;5031039;28;20192;-71
2021/12/21 12:21:29;;;;;;;10.50;6.65;;;2.10;80.20;;;;;;5007281;28;20723;-71
2021/12/21 12:23:57;;;;;;;20.70;6.82;;;2.10;79.90;;;;;;5027790;28;20181;-72
2021/12/21 12:26:32;;;;;;;11.55;6.05;;;2.20;79.70;;;;;;5030094;28;20189;-72
2021/12/21 12:29:18;;;;;;;17.83;7.13;;;2.20;79.60;;;;;;5024812;28;20191;-70
2021/12/21 12:31:57;;;;;;;14.77;6.43;;;2.20;79.90;;;;;;5029319;28;20275;-72
2021/12/21 12:34:29;;;;;;;16.23;6.82;;;2.20;79.30;;;;;;5026512;28;20181;-73
2021/12/21 12:36:55;;;;;;;11.65;6.22;;;2.30;79.00;;;;;;5024546;28;20174;-73
2021/12/21 12:39:38;;;;;;;10.50;6.15;;;2.30;79.00;;;;;;5030894;28;20508;-71
2021/12/21 12:42:12;;;;;;;8.95;6.13;;;2.40;79.30;;;;;;5022791;28;20219;-73
2021/12/21 12:44:40;;;;;;;11.82;6.55;;;2.50;79.00;;;;;;5026477;28;20272;-73
2021/12/21 12:47:11;;;;;;;16.02;6.00;;;2.60;78.30;;;;;;5030551;28;20204;-73
2021/12/21 12:49:52;;;;;;;10.75;6.15;;;2.70;77.40;;;;;;5030222;28;20276;-71
2021/12/21 12:52:31;;;;;;;10.32;6.13;;;2.60;77.10;;;;;;5030685;28;20296;-72
2021/12/21 12:55:12;;;;;;;14.05;7.20;;;2.70;77.10;;;;;;5029849;28;20216;-71
2021/12/21 12:57:48;;;;;;;10.35;5.80;;;2.70;76.80;;;;;;5024832;28;20676;-70
2021/12/21 13:00:17;;;;;;;10.95;5.32;;;2.70;76.80;;;;;;5035591;28;20675;-72
2021/12/21 13:02:55;;;;;;;11.40;6.32;;;2.70;76.50;;;;;;5028630;28;20207;-71
2021/12/21 13:05:26;;;;;;;8.65;5.88;;;2.80;76.50;;;;;;5029869;28;20195;-72
2021/12/21 13:07:52;;;;;;;12.02;6.55;;;2.90;76.50;;;;;;5030127;28;20222;-73
2021/12/21 13:10:21;;;;;;;9.40;5.43;;;2.90;76.70;;;;;;5026251;28;20209;-71
2021/12/21 13:12:56;;;;;;;10.55;5.68;;;3.10;76.20;;;;;;5028577;28;20204;-71
2021/12/21 13:15:32;;;;;;;10.07;4.50;;;3.20;74.80;;;;;;5029452;28;20418;-73
2021/12/21 13:18:06;;;;;;;13.20;5.43;;;3.20;74.60;;;;;;5022842;28;20227;-72
2021/12/21 13:20:33;;;;;;;7.45;4.10;;;3.40;74.20;;;;;;5029907;28;20681;-71
2021/12/21 13:23:26;;;;;;;9.23;4.72;;;3.50;72.90;;;;;;5030262;28;20205;-71
2021/12/21 13:26:07;;;;;;;7.60;4.97;;;3.40;72.70;;;;;;5035226;28;20223;-72
2021/12/21 13:28:52;;;;;;;9.52;4.40;;;3.40;72.90;;;;;;5030015;28;20318;-71
2021/12/21 13:31:23;;;;;;;6.20;3.97;;;3.30;72.40;;;;;;5030361;28;20307;-70
2021/12/21 13:33:55;;;;;;;8.80;4.22;;;3.30;72.70;;;;;;5031356;28;20639;-71
2021/12/21 13:36:35;;;;;;;9.98;5.50;;;3.20;72.90;;;;;;5030431;28;20213;-70
2021/12/21 13:39:34;;;;;;;8.05;4.78;;;3.20;72.90;;;;;;5023854;28;20742;-70
2021/12/21 13:42:10;;;;;;;7.90;4.80;;;3.10;73.00;;;;;;5024532;28;20185;-72
2021/12/21 13:44:48;;;;;;;12.20;5.53;;;3.20;73.30;;;;;;5030745;28;20184;-72
2021/12/21 13:47:22;;;;;;;10.52;5.80;;;3.20;74.60;;;;;;5030667;28;20238;-72
2021/12/21 13:49:53;;;;;;;11.85;7.53;;;3.10;76.10;;;;;;5032822;28;20193;-71
2021/12/21 13:52:21;;;;;;;18.92;7.35;;;3.10;76.70;;;;;;5012583;28;20278;-74
2021/12/21 13:54:46;;;;;;;10.73;6.32;;;3.10;77.40;;;;;;5031040;28;20574;-72
2021/12/21 13:57:17;;;;;;;11.00;5.80;;;3.00;77.30;;;;;;5012205;28;20182;-72
2021/12/21 13:59:42;;;;;;;13.98;6.55;;;3.00;77.30;;;;;;5024509;28;20189;-71